Terminal Aerodrome Forecast
Issued by NWS

Home | Current Version | Previous Version | Text Only | Print | Product List | Glossary Off
Versions: 1 2 3 4 5 6 7 8 9 10 11 12 13 14 15 16 17 18 19 20 21 22 23 24 25 26 27 28 29 30 31 32

000
FTUS43 KGRB 292338
TAFRHI
TAF
KRHI 292338Z 3000/3024 28005KT P6SM VCSH SCT015 BKN100
     FM300600 35005KT 6SM BR SCT010
      TEMPO 3009/3013 3SM BR BKN005
     FM301500 36007KT P6SM SCT012 BKN025
     FM301900 36009KT P6SM SCT035=

USA.gov is the U.S. government's official web portal to all federal, state and local government web resources and services.